Terminal Aerodrome Forecast
Issued by NWS

Home | Current Version | Previous Version | Graphics & Text | Print | Product List | Glossary On
Versions: 1 2 3 4 5 6 7 8 9 10 11 12
659
FTUS42 KMHX 231720
TAFPGV
TAF
KPGV 231720Z 2318/2418 05008G16KT P6SM SKC
     FM240000 VRB04KT P6SM SKC
     FM241500 19009KT P6SM SKC
      AMD LTD TO CLD VIS AND WIND=

USA.gov is the U.S. government's official web portal to all federal, state and local government web resources and services.